Los Alamitos Army Air Field
KSLI : rendu visible

Aérodrome :











RETROUVEZ-NOUS SUR...

 
LOGIN :

S'inscrire | Disclaimer

   EN    FR    IT 

 









Légende :    VFR   VFR Marginal   IFR   IFR Intensif   IFR Très Intensif
Visi : 
Plafond : 
>= 8 km
>= 3000ft
5 à 8 km
1000 à 3000 ft
1500m à 5 km
500 à 1000 ft
800 à 1500m
200 à 500 ft
< 800m
< 200 ft
Symboles :   Orages  Brouillard  Fortes neiges  Fortes précipitations  Vent > 20 kt






- Altitude de l'aérodrome : 32 ft


KSLI - Los Alamitos Army Air Field

DERNIER METAR :
  • 031058Z AUTO 31005KT 10SM SCT180 19/14 A2988 RMK AO2 SLP121 T01870144

METARs EXPIRÉS :
  • 030958Z AUTO 25006KT 10SM CLR 17/15 A2989 RMK AO2 SLP125 T01740147

TAF TAF KSLI
Valide du 03 à 05h jusqu'au 04 à 11h UTC


030554Z 0305/0411 VRB06KT 9999 BKN200 QNH2984INS TX26/0320Z TN16/0311Z
FIR KZLA / Amérique du Nord



MET'MAP, la Météo Aéronautique d'un coup d'oeil ! - Copyright ORBIFLY Décembre 2007 - Disclaimer

ORBIFLY MET'MAP TEAM :

Programmation & Développement : Alexandra Zaïnal
Sur une idée originale de : Baudouin d'Aumeries
Assistance à la programmation : Marc-Olivier Méhu
Soutien technique & logistique : Manuel Goepfert

Contact : metmap@orbifly.com




SOURCES & CREDITS :

   NOAA       Earth
Advisory